createdAt,value
2022-11-03T00:01:20.377Z,7.17
2022-11-03T00:04:26.135Z,6.40
2022-11-03T00:07:32.013Z,5.93
2022-11-03T00:10:37.840Z,8.23
2022-11-03T00:13:44.881Z,8.17
2022-11-03T00:16:52.367Z,6.03
2022-11-03T00:19:58.544Z,4.47
2022-11-03T00:23:05.093Z,5.50
2022-11-03T00:26:14.537Z,5.53
2022-11-03T00:29:21.717Z,5.37
2022-11-03T00:32:29.122Z,4.60
2022-11-03T00:35:35.585Z,5.83
2022-11-03T00:38:42.142Z,6.10
2022-11-03T00:41:48.761Z,4.90
2022-11-03T00:44:54.701Z,5.13
2022-11-03T00:48:20.205Z,4.33
2022-11-03T00:51:30.091Z,14.53
2022-11-03T00:54:36.298Z,6.60
2022-11-03T00:57:42.496Z,7.53
2022-11-03T01:00:49.009Z,5.70
2022-11-03T01:04:16.102Z,5.50
2022-11-03T01:07:22.651Z,6.17
2022-11-03T01:10:28.781Z,5.77
2022-11-03T01:13:34.868Z,8.43
2022-11-03T01:16:41.901Z,6.77
2022-11-03T01:19:49.666Z,5.73
2022-11-03T01:22:55.601Z,6.03
2022-11-03T01:26:06.044Z,5.80
2022-11-03T01:29:12.368Z,5.93
2022-11-03T01:32:18.964Z,5.13
2022-11-03T01:35:26.859Z,5.37
2022-11-03T01:38:34.005Z,4.77
2022-11-03T01:41:41.255Z,4.87
2022-11-03T01:44:50.060Z,5.23
2022-11-03T01:47:56.504Z,6.27
2022-11-03T01:51:06.773Z,6.80
2022-11-03T01:54:16.621Z,7.37
2022-11-03T01:57:28.521Z,7.13
2022-11-03T02:00:34.887Z,7.40
2022-11-03T02:03:44.408Z,6.50
2022-11-03T02:06:59.104Z,7.67
2022-11-03T02:10:06.872Z,6.37
2022-11-03T02:13:19.805Z,5.33
2022-11-03T02:16:30.506Z,6.07
2022-11-03T02:19:42.187Z,5.33
2022-11-03T02:23:19.381Z,6.43
2022-11-03T02:26:27.008Z,7.53
2022-11-03T02:29:33.396Z,7.00
2022-11-03T02:32:51.061Z,6.87
2022-11-03T02:36:02.862Z,7.50
2022-11-03T02:39:16.227Z,9.30
2022-11-03T02:42:25.829Z,8.73
2022-11-03T02:45:32.544Z,8.20
2022-11-03T02:48:38.991Z,7.83
2022-11-03T02:51:45.409Z,7.87
2022-11-03T02:54:53.396Z,8.20
2022-11-03T02:58:07.521Z,8.97
2022-11-03T03:01:19.013Z,7.47
2022-11-03T03:04:30.529Z,7.53
2022-11-03T03:07:42.758Z,5.57
2022-11-03T03:10:50.135Z,7.37
2022-11-03T03:13:57.718Z,7.83
2022-11-03T03:17:10.282Z,7.30
2022-11-03T03:20:24.464Z,7.07
2022-11-03T03:23:36.900Z,11.67
2022-11-03T03:26:46.191Z,7.23
2022-11-03T03:29:57.112Z,9.00
2022-11-03T03:33:06.141Z,7.63
2022-11-03T03:36:17.660Z,7.30
2022-11-03T03:39:27.060Z,7.20
2022-11-03T03:42:35.907Z,7.53
2022-11-03T03:45:45.582Z,7.03
2022-11-03T03:48:51.612Z,5.73
2022-11-03T03:51:57.866Z,6.30
2022-11-03T03:55:04.135Z,6.23
2022-11-03T03:58:13.423Z,6.13
2022-11-03T04:01:21.185Z,7.17
2022-11-03T04:04:27.347Z,6.87
2022-11-03T04:07:48.529Z,8.40
2022-11-03T04:11:12.245Z,8.00
2022-11-03T04:14:35.730Z,7.90
2022-11-03T04:18:03.461Z,7.60
2022-11-03T04:21:30.663Z,10.77
2022-11-03T04:24:36.577Z,12.73
2022-11-03T04:27:42.620Z,9.77
2022-11-03T04:30:48.854Z,7.13
2022-11-03T04:33:56.462Z,8.50
2022-11-03T04:37:03.073Z,9.33
2022-11-03T04:40:16.171Z,13.07
2022-11-03T04:43:25.955Z,15.70
2022-11-03T04:46:33.175Z,18.10
2022-11-03T04:49:40.904Z,19.80
2022-11-03T04:52:48.219Z,16.00
2022-11-03T04:55:56.167Z,15.47
2022-11-03T04:59:02.482Z,19.93
2022-11-03T05:02:14.504Z,14.67
2022-11-03T05:05:24.469Z,15.47
2022-11-03T05:08:30.561Z,21.03
2022-11-03T05:11:39.996Z,16.87
2022-11-03T05:14:46.257Z,8.37
2022-11-03T05:17:52.399Z,9.70
2022-11-03T05:21:02.511Z,13.27
2022-11-03T05:27:23.442Z,29.47
2022-11-03T05:30:29.665Z,30.20
2022-11-03T05:33:37.112Z,26.97
2022-11-03T05:36:44.955Z,18.13
2022-11-03T05:39:52.365Z,14.43
2022-11-03T05:43:02.325Z,13.83
2022-11-03T05:46:12.982Z,12.77
2022-11-03T05:49:20.371Z,11.90
2022-11-03T05:52:29.465Z,12.07
2022-11-03T05:55:37.070Z,15.73
2022-11-03T05:58:45.564Z,19.57
2022-11-03T06:01:53.217Z,18.53
2022-11-03T06:04:59.513Z,19.17
2022-11-03T06:08:20.446Z,19.17
2022-11-03T06:11:32.668Z,12.17
2022-11-03T06:14:38.929Z,12.07
2022-11-03T06:17:45.293Z,12.77
2022-11-03T06:20:53.986Z,26.90
2022-11-03T06:24:01.737Z,27.37
2022-11-03T06:27:11.921Z,17.03
2022-11-03T06:30:25.243Z,18.33
2022-11-03T06:33:35.159Z,18.73
2022-11-03T06:36:41.524Z,14.43
2022-11-03T06:39:49.853Z,13.57
2022-11-03T06:42:58.612Z,10.57
2022-11-03T06:46:14.303Z,11.10
2022-11-03T06:49:29.886Z,10.47
2022-11-03T06:52:42.933Z,9.60
2022-11-03T06:55:50.961Z,11.13
2022-11-03T06:58:58.689Z,14.47
2022-11-03T07:02:04.924Z,12.40
2022-11-03T07:05:23.041Z,11.90
2022-11-03T07:08:33.350Z,9.77
2022-11-03T07:11:45.117Z,9.40
2022-11-03T07:14:50.990Z,12.33
2022-11-03T07:17:57.012Z,17.93
2022-11-03T07:21:08.415Z,20.30
2022-11-03T07:24:20.145Z,22.23
2022-11-03T07:27:30.193Z,13.97
2022-11-03T07:30:37.757Z,12.27
2022-11-03T07:33:44.103Z,13.43
2022-11-03T07:36:55.663Z,9.83
2022-11-03T07:40:02.130Z,9.87
2022-11-03T07:43:17.490Z,10.50
2022-11-03T07:46:25.030Z,7.40
2022-11-03T07:49:32.008Z,9.87
2022-11-03T07:52:37.953Z,8.23
2022-11-03T07:55:45.896Z,7.93
2022-11-03T07:58:56.929Z,8.13
2022-11-03T08:02:04.247Z,8.07
2022-11-03T08:05:10.660Z,8.27
2022-11-03T08:08:16.890Z,7.00
2022-11-03T08:11:27.891Z,8.83
2022-11-03T08:14:38.046Z,8.43
2022-11-03T08:17:44.586Z,8.57
2022-11-03T08:20:50.686Z,6.80
2022-11-03T08:23:57.011Z,6.47
2022-11-03T08:27:03.610Z,5.93
2022-11-03T08:30:11.601Z,5.97
2022-11-03T08:33:18.105Z,5.57
2022-11-03T08:36:24.242Z,6.70
2022-11-03T08:39:31.445Z,7.17
2022-11-03T08:42:37.540Z,5.60
2022-11-03T08:45:44.675Z,5.13
2022-11-03T08:48:52.035Z,7.23
2022-11-03T08:51:58.227Z,7.23
2022-11-03T08:55:04.374Z,5.97
2022-11-03T08:58:10.675Z,5.00
2022-11-03T09:01:18.872Z,5.70
2022-11-03T09:04:24.948Z,5.90
2022-11-03T09:10:57.718Z,5.70
2022-11-03T09:14:04.543Z,5.03
2022-11-03T09:17:12.293Z,5.23
2022-11-03T09:20:18.670Z,5.30
2022-11-03T09:23:25.097Z,6.50
2022-11-03T09:26:31.251Z,4.87
2022-11-03T09:30:06.380Z,5.40
2022-11-03T09:33:05.146Z,5.83
2022-11-03T09:36:11.768Z,5.53
2022-11-03T09:39:18.257Z,4.80
2022-11-03T09:42:24.937Z,5.07
2022-11-03T09:45:31.044Z,5.60
2022-11-03T09:48:38.974Z,4.50
2022-11-03T09:51:46.008Z,5.07
2022-11-03T09:54:55.501Z,5.43
2022-11-03T09:58:07.650Z,5.27
2022-11-03T10:01:14.273Z,5.30
2022-11-03T10:04:27.119Z,5.70
2022-11-03T10:07:33.365Z,6.33
2022-11-03T10:10:41.498Z,6.97
2022-11-03T10:13:53.000Z,5.37
2022-11-03T10:17:01.086Z,6.70
2022-11-03T10:20:12.672Z,6.03
2022-11-03T10:23:19.214Z,5.73
2022-11-03T10:26:25.459Z,6.97
2022-11-03T10:29:37.244Z,7.43
2022-11-03T10:32:45.801Z,7.77
2022-11-03T10:35:53.403Z,8.03
2022-11-03T10:39:01.810Z,7.00
2022-11-03T10:42:17.661Z,6.53
2022-11-03T10:45:24.698Z,6.37
2022-11-03T10:48:33.094Z,13.83
2022-11-03T10:51:41.334Z,12.63
2022-11-03T10:54:47.911Z,8.37
2022-11-03T10:57:56.734Z,7.40
2022-11-03T11:01:03.215Z,6.83
2022-11-03T11:04:09.935Z,6.57
2022-11-03T11:07:28.209Z,6.10
2022-11-03T11:10:35.126Z,5.93
2022-11-03T11:13:41.925Z,5.93
2022-11-03T11:16:53.150Z,6.27
2022-11-03T11:20:43.973Z,6.90
2022-11-03T11:23:53.094Z,6.20
2022-11-03T11:26:59.123Z,6.40
2022-11-03T11:30:07.522Z,5.50
2022-11-03T11:33:15.793Z,5.57
2022-11-03T11:36:25.075Z,5.83
2022-11-03T11:39:47.909Z,5.70
2022-11-03T11:43:28.027Z,5.97
2022-11-03T11:46:42.398Z,5.13
2022-11-03T11:49:48.553Z,5.37
2022-11-03T11:52:59.196Z,6.93
2022-11-03T11:56:10.173Z,7.17
2022-11-03T11:59:24.623Z,7.60
2022-11-03T12:02:32.357Z,7.33
2022-11-03T12:05:38.770Z,6.77
2022-11-03T12:08:45.304Z,6.50
2022-11-03T12:11:56.448Z,6.03
2022-11-03T12:15:03.088Z,7.63
2022-11-03T12:18:31.965Z,6.67
2022-11-03T12:21:48.756Z,6.37
2022-11-03T12:24:56.185Z,6.80
2022-11-03T12:28:04.224Z,7.53
2022-11-03T12:31:10.595Z,9.00
2022-11-03T12:34:17.156Z,7.40
2022-11-03T12:37:23.937Z,9.50
2022-11-03T12:40:30.535Z,14.13
2022-11-03T12:43:38.620Z,9.90
2022-11-03T12:46:45.212Z,10.80
2022-11-03T12:49:51.542Z,9.07
2022-11-03T12:52:58.006Z,7.60
2022-11-03T12:56:04.359Z,8.57
2022-11-03T12:59:12.311Z,8.50
2022-11-03T13:02:18.922Z,10.77
2022-11-03T13:05:25.948Z,10.07
2022-11-03T13:08:32.314Z,9.70
2022-11-03T13:11:55.968Z,9.57
2022-11-03T13:15:05.138Z,13.70
2022-11-03T13:18:14.130Z,10.13
2022-11-03T13:21:20.633Z,9.07
2022-11-03T13:24:26.544Z,8.53
2022-11-03T13:27:32.451Z,10.27
2022-11-03T13:30:40.514Z,11.53
2022-11-03T13:33:46.926Z,12.03
2022-11-03T13:36:52.866Z,13.43
2022-11-03T13:39:59.069Z,10.20
2022-11-03T13:43:05.392Z,15.43
2022-11-03T13:46:13.516Z,16.43
2022-11-03T13:50:07.772Z,10.57
2022-11-03T13:52:47.772Z,10.03
2022-11-03T13:55:56.241Z,5.53
2022-11-03T14:05:58.923Z,14.63
2022-11-03T14:09:05.201Z,9.50
2022-11-03T14:12:29.128Z,11.23
2022-11-03T14:15:35.336Z,12.87
2022-11-03T14:18:43.053Z,8.93
2022-11-03T14:21:49.465Z,11.37
2022-11-03T14:24:55.633Z,10.20
2022-11-03T14:28:02.058Z,9.10
2022-11-03T14:31:08.692Z,6.97
2022-11-03T14:34:16.868Z,23.67
2022-11-03T14:37:25.532Z,9.40
2022-11-03T14:40:49.465Z,13.73
2022-11-03T14:43:55.581Z,18.53
2022-11-03T14:47:02.852Z,15.57
2022-11-03T14:50:11.171Z,14.33
2022-11-03T14:53:17.818Z,13.60
2022-11-03T14:56:23.981Z,14.83
2022-11-03T14:59:30.419Z,15.70
2022-11-03T15:02:37.197Z,19.87
2022-11-03T15:05:47.724Z,17.70
2022-11-03T15:08:56.613Z,18.30
2022-11-03T15:12:03.509Z,12.13
2022-11-03T15:15:11.426Z,13.43
2022-11-03T15:18:18.291Z,16.93
2022-11-03T15:21:26.146Z,16.80
2022-11-03T15:27:59.284Z,16.73
2022-11-03T15:31:05.710Z,20.90
2022-11-03T15:34:12.652Z,35.63
2022-11-03T15:37:20.717Z,40.70
2022-11-03T15:40:27.800Z,41.03
2022-11-03T15:43:33.870Z,50.30
2022-11-03T15:46:40.162Z,49.23
2022-11-03T15:49:46.521Z,49.97
2022-11-03T15:52:54.034Z,38.80
2022-11-03T15:56:00.454Z,41.23
2022-11-03T15:59:07.400Z,50.60
2022-11-03T16:02:35.721Z,40.70
2022-11-03T16:05:39.609Z,68.13
2022-11-03T16:08:47.549Z,76.60
2022-11-03T16:11:53.985Z,75.33
2022-11-03T16:15:00.093Z,84.10
2022-11-03T16:18:06.278Z,42.90
2022-11-03T16:21:12.823Z,44.30
2022-11-03T16:24:20.254Z,49.17
2022-11-03T16:27:26.486Z,34.90
2022-11-03T16:30:33.649Z,43.33
2022-11-03T16:33:39.873Z,47.13
2022-11-03T16:36:45.821Z,45.57
2022-11-03T16:39:53.709Z,37.10
2022-11-03T16:42:59.630Z,39.03
2022-11-03T16:46:05.915Z,47.87
2022-11-03T16:49:12.105Z,87.43
2022-11-03T16:52:18.653Z,92.80
2022-11-03T16:55:26.475Z,67.70
2022-11-03T16:58:33.329Z,81.47
2022-11-03T17:01:40.755Z,84.80
2022-11-03T17:04:49.449Z,89.10
2022-11-03T17:07:56.724Z,52.23
2022-11-03T17:11:05.021Z,45.37
2022-11-03T17:14:14.902Z,38.13
2022-11-03T17:17:21.746Z,29.73
2022-11-03T17:20:28.508Z,36.33
2022-11-03T17:23:34.691Z,27.97
2022-11-03T17:26:51.803Z,25.63
2022-11-03T17:30:02.171Z,25.60
2022-11-03T17:33:10.327Z,25.90
2022-11-03T17:36:16.745Z,22.63
2022-11-03T17:39:29.301Z,22.83
2022-11-03T17:42:37.282Z,26.60
2022-11-03T17:45:43.168Z,52.57
2022-11-03T17:48:49.445Z,65.03
2022-11-03T17:51:55.634Z,53.87
2022-11-03T17:55:04.604Z,67.30
2022-11-03T17:58:12.845Z,57.50
2022-11-03T18:01:23.441Z,55.83
2022-11-03T18:04:29.985Z,57.67
2022-11-03T18:07:36.014Z,52.73
2022-11-03T18:10:44.469Z,51.47
2022-11-03T18:13:51.121Z,60.80
2022-11-03T18:16:58.250Z,68.97
2022-11-03T18:20:04.931Z,45.53
2022-11-03T18:23:17.191Z,48.20
2022-11-03T18:26:24.938Z,45.50
2022-11-03T18:29:32.624Z,45.33
2022-11-03T18:32:40.336Z,51.33
2022-11-03T18:35:46.356Z,54.60
2022-11-03T18:38:57.238Z,44.83
2022-11-03T18:42:03.306Z,44.73
2022-11-03T18:45:14.732Z,43.60
2022-11-03T18:48:20.934Z,37.93
2022-11-03T18:51:27.299Z,38.03
2022-11-03T18:54:35.654Z,47.73
2022-11-03T18:57:42.420Z,43.87
2022-11-03T19:00:50.427Z,44.87
2022-11-03T19:03:57.537Z,45.43
2022-11-03T19:07:08.374Z,39.43
2022-11-03T19:10:18.067Z,35.97
2022-11-03T19:13:29.906Z,40.23
2022-11-03T19:16:39.812Z,40.77
2022-11-03T19:19:56.696Z,58.30
2022-11-03T19:23:02.880Z,54.67
2022-11-03T19:26:20.506Z,37.00
2022-11-03T19:29:29.821Z,38.63
2022-11-03T19:32:43.629Z,36.90
2022-11-03T19:35:50.859Z,42.73
2022-11-03T19:38:57.093Z,40.53
2022-11-03T19:42:29.034Z,38.97
2022-11-03T19:45:35.090Z,35.53
2022-11-03T19:48:42.686Z,29.23
2022-11-03T19:51:49.174Z,34.50
2022-11-03T19:54:55.818Z,40.17
2022-11-03T19:58:08.791Z,44.47
2022-11-03T20:01:15.361Z,29.57
2022-11-03T20:04:22.763Z,22.30
2022-11-03T20:07:31.877Z,32.67
2022-11-03T20:10:38.330Z,30.97
2022-11-03T20:13:44.957Z,33.80
2022-11-03T20:16:50.865Z,37.97
2022-11-03T20:19:58.364Z,46.47
2022-11-03T20:23:06.197Z,45.87
2022-11-03T20:26:15.376Z,47.47
2022-11-03T20:29:21.419Z,43.57
2022-11-03T20:32:27.247Z,39.57
2022-11-03T20:35:37.889Z,43.40
2022-11-03T20:38:44.257Z,28.30
2022-11-03T20:41:52.310Z,21.20
2022-11-03T20:44:58.642Z,14.13
2022-11-03T20:48:05.221Z,24.27
2022-11-03T20:51:16.224Z,28.90
2022-11-03T20:54:22.973Z,26.20
2022-11-03T20:57:29.114Z,20.10
2022-11-03T21:00:40.056Z,16.57
2022-11-03T21:03:58.920Z,19.27
2022-11-03T21:07:07.699Z,21.00
2022-11-03T21:10:20.170Z,56.37
2022-11-03T21:13:26.711Z,30.17
2022-11-03T21:16:50.255Z,21.20
2022-11-03T21:20:12.013Z,18.67
2022-11-03T21:23:23.631Z,17.07
2022-11-03T21:26:29.845Z,18.57
2022-11-03T21:30:05.295Z,14.23
2022-11-03T21:33:02.441Z,16.10
2022-11-03T21:36:09.270Z,11.43
2022-11-03T21:39:16.734Z,8.20
2022-11-03T21:42:40.172Z,13.23
2022-11-03T21:45:46.441Z,12.93
2022-11-03T21:49:09.221Z,14.97
2022-11-03T21:52:17.416Z,14.07
2022-11-03T21:55:25.011Z,16.07
2022-11-03T21:58:31.408Z,15.00
2022-11-03T22:01:37.651Z,9.87
2022-11-03T22:04:44.047Z,12.63
2022-11-03T22:07:50.529Z,13.43
2022-11-03T22:11:18.631Z,11.23
2022-11-03T22:14:26.683Z,10.00
2022-11-03T22:17:32.233Z,18.40
2022-11-03T22:21:04.571Z,21.23
2022-11-03T22:24:28.062Z,20.27
2022-11-03T22:27:36.769Z,13.50
2022-11-03T22:31:15.088Z,8.53
2022-11-03T22:34:38.822Z,8.03
2022-11-03T22:37:44.760Z,7.70
2022-11-03T22:41:10.675Z,8.00
2022-11-03T22:44:35.705Z,8.50
2022-11-03T22:47:41.851Z,8.10
2022-11-03T22:50:48.228Z,11.33
2022-11-03T22:54:12.724Z,10.87
2022-11-03T22:57:19.029Z,9.10
2022-11-03T23:00:26.412Z,11.33
2022-11-03T23:03:33.676Z,7.57
2022-11-03T23:06:41.640Z,8.33
2022-11-03T23:09:47.928Z,8.37
2022-11-03T23:12:53.937Z,8.33
2022-11-03T23:16:01.314Z,9.60
2022-11-03T23:19:26.060Z,8.10
2022-11-03T23:22:31.921Z,7.80
2022-11-03T23:25:37.093Z,6.40
2022-11-03T23:28:44.413Z,6.60
2022-11-03T23:31:52.142Z,6.37
2022-11-03T23:34:58.017Z,5.80
2022-11-03T23:38:03.933Z,6.33
2022-11-03T23:41:12.650Z,6.10
2022-11-03T23:44:18.743Z,6.50
2022-11-03T23:47:44.010Z,4.20
2022-11-03T23:50:50.211Z,6.80
2022-11-03T23:53:57.602Z,7.00
2022-11-03T23:57:21.527Z,6.80
